Time;durP1;ratioP1;P1;durP2;ratioP2;P2;SDS_P1;SDS_P2;PMS_P1;PMS_P2;Temp;Humidity;BMP_temperature;BMP_pressure;BME280_temperature;BME280_humidity;BME280_pressure;Samples;Min_cycle;Max_cycle;Signal;HPM_P1;HPM_P2
2022/06/28 00:00:56;;;;;;;14.65;13.05;;;25.00;66.20;;;;;;5080904;28;20036;-85
2022/06/28 00:03:23;;;;;;;14.25;12.77;;;25.00;66.30;;;;;;5067894;28;20564;-86
2022/06/28 00:05:49;;;;;;;14.32;12.43;;;25.00;66.60;;;;;;5077955;28;20039;-86
2022/06/28 00:08:15;;;;;;;14.32;13.00;;;24.90;66.60;;;;;;5088957;28;20024;-87
2022/06/28 00:10:40;;;;;;;14.50;13.10;;;24.90;66.90;;;;;;5076151;28;20024;-85
2022/06/28 00:13:08;;;;;;;14.82;13.18;;;24.90;67.00;;;;;;5089969;28;20020;-86
2022/06/28 00:18:18;;;;;;;14.50;13.02;;;24.80;66.50;;;;;;5086746;28;19973;-86
2022/06/28 00:20:45;;;;;;;;;;;24.70;67.60;;;;;;5075320;28;20045;-86
2022/06/28 00:23:11;;;;;;;15.63;14.15;;;24.70;67.20;;;;;;5073604;28;19978;-87
2022/06/28 00:25:36;;;;;;;17.33;14.10;;;24.60;68.10;;;;;;5040816;28;20051;-88
2022/06/28 00:28:03;;;;;;;14.82;13.35;;;24.60;68.40;;;;;;5074610;28;20017;-87
2022/06/28 00:30:29;;;;;;;14.85;13.43;;;24.60;68.50;;;;;;5057070;28;20055;-87
2022/06/28 00:32:55;;;;;;;16.77;13.48;;;24.50;68.60;;;;;;5074993;28;20025;-86
2022/06/28 00:35:21;;;;;;;14.77;13.25;;;24.50;68.80;;;;;;5058084;28;20505;-87
2022/06/28 00:37:47;;;;;;;15.63;14.20;;;24.50;68.90;;;;;;5076614;28;20025;-87
2022/06/28 00:40:13;;;;;;;18.23;14.27;;;24.50;69.10;;;;;;5075173;28;20025;-85
2022/06/28 00:42:39;;;;;;;16.05;14.57;;;24.40;69.20;;;;;;5073891;28;20017;-87
2022/06/28 00:45:06;;;;;;;14.20;12.90;;;24.40;69.40;;;;;;5073872;28;20040;-87
2022/06/28 00:47:33;;;;;;;17.55;13.95;;;24.30;69.70;;;;;;5074005;28;20023;-86
2022/06/28 00:49:59;;;;;;;14.63;13.23;;;24.30;69.70;;;;;;5074035;28;20084;-89
2022/06/28 00:52:25;;;;;;;16.63;14.13;;;24.20;69.50;;;;;;5074236;28;20249;-87
2022/06/28 00:54:51;;;;;;;15.93;13.55;;;24.20;69.70;;;;;;5074685;28;20466;-87
2022/06/28 00:57:17;;;;;;;14.10;12.75;;;24.10;69.70;;;;;;5073117;28;20012;-87
2022/06/28 00:59:43;;;;;;;15.13;13.30;;;24.10;69.70;;;;;;5073734;28;20024;-87
2022/06/28 01:02:08;;;;;;;14.55;12.95;;;24.10;70.00;;;;;;5074601;28;20493;-88
2022/06/28 01:04:35;;;;;;;15.10;13.07;;;24.00;69.50;;;;;;5074075;28;20059;-87
2022/06/28 01:07:01;;;;;;;14.10;12.63;;;24.00;69.40;;;;;;5076343;28;20055;-88
2022/06/28 01:09:27;;;;;;;14.70;12.75;;;24.00;69.60;;;;;;5095647;28;20036;-89
2022/06/28 01:11:53;;;;;;;14.75;13.20;;;24.00;69.80;;;;;;5072118;28;20482;-88
2022/06/28 01:14:19;;;;;;;14.50;13.00;;;24.00;69.70;;;;;;5074457;28;20382;-88
2022/06/28 01:16:46;;;;;;;15.20;13.00;;;24.00;69.90;;;;;;5075175;28;20534;-87
2022/06/28 01:19:16;;;;;;;14.18;12.68;;;24.00;69.80;;;;;;5075691;28;20028;-89
2022/06/28 01:21:42;;;;;;;19.13;13.68;;;23.90;69.80;;;;;;5056809;28;20132;-87
2022/06/28 01:24:08;;;;;;;13.93;12.50;;;23.90;69.90;;;;;;5074156;28;20025;-88
2022/06/28 01:26:35;;;;;;;16.45;12.80;;;23.90;70.00;;;;;;5056158;28;20037;-88
2022/06/28 01:29:01;;;;;;;14.45;12.82;;;23.90;69.90;;;;;;5075951;28;20095;-88
2022/06/28 01:31:27;;;;;;;15.35;12.57;;;23.90;69.70;;;;;;5076613;28;20028;-88
2022/06/28 01:33:55;;;;;;;14.63;12.50;;;23.90;69.60;;;;;;5077355;28;20154;-88
2022/06/28 01:36:21;;;;;;;15.00;13.40;;;23.90;69.70;;;;;;5078146;28;20032;-86
2022/06/28 01:38:48;;;;;;;14.10;12.70;;;23.90;69.80;;;;;;5079092;28;20086;-86
2022/06/28 01:44:06;;;;;;;15.43;12.13;;;23.90;69.90;;;;;;5068979;28;20027;-87
2022/06/28 01:46:34;;;;;;;16.02;12.68;;;23.90;70.00;;;;;;5078878;28;20094;-88
2022/06/28 01:49:00;;;;;;;15.30;13.70;;;23.90;70.20;;;;;;5078881;28;20013;-86
2022/06/28 01:51:26;;;;;;;15.00;12.60;;;24.00;70.20;;;;;;5080182;28;20080;-89
2022/06/28 01:53:52;;;;;;;14.65;13.27;;;24.00;70.20;;;;;;5069305;28;20035;-86
2022/06/28 01:56:18;;;;;;;20.08;13.48;;;24.00;70.30;;;;;;5097870;28;20028;-88
2022/06/28 01:58:44;;;;;;;12.23;11.15;;;24.00;70.40;;;;;;5079465;28;20062;-88
2022/06/28 02:01:10;;;;;;;15.35;13.10;;;24.00;70.30;;;;;;5082833;28;20017;-88
2022/06/28 02:03:36;;;;;;;14.50;13.05;;;24.00;70.50;;;;;;5079200;28;20056;-87
2022/06/28 02:06:01;;;;;;;13.82;12.55;;;24.00;70.50;;;;;;5077807;28;20035;-88
2022/06/28 02:08:27;;;;;;;15.45;13.93;;;24.00;70.50;;;;;;5078268;28;20021;-89
2022/06/28 02:10:58;;;;;;;14.75;13.43;;;24.00;70.30;;;;;;5079851;28;20028;-86
2022/06/28 02:13:24;;;;;;;17.80;13.82;;;24.00;70.50;;;;;;5059543;28;20367;-87
2022/06/28 02:15:51;;;;;;;14.63;12.40;;;24.00;70.30;;;;;;5076937;28;20042;-88
2022/06/28 02:18:16;;;;;;;15.68;13.23;;;24.00;70.40;;;;;;5059723;28;20020;-88
2022/06/28 02:20:42;;;;;;;15.65;13.98;;;24.00;70.40;;;;;;5058633;28;20139;-85
2022/06/28 02:23:08;;;;;;;15.00;12.68;;;24.00;70.40;;;;;;5076656;28;20025;-85
2022/06/28 02:25:34;;;;;;;16.35;11.88;;;24.00;70.30;;;;;;5076272;28;20094;-86
2022/06/28 02:28:00;;;;;;;14.30;12.10;;;24.10;70.70;;;;;;5076981;28;20020;-86
2022/06/28 02:30:26;;;;;;;14.70;13.23;;;24.10;70.40;;;;;;5077065;28;20028;-87
2022/06/28 02:32:51;;;;;;;13.60;12.27;;;24.20;70.40;;;;;;5076640;28;20027;-86
2022/06/28 02:40:47;;;;;;;18.88;12.02;;;24.30;69.50;;;;;;5076597;28;20035;-86
2022/06/28 02:43:13;;;;;;;16.67;12.20;;;24.30;69.50;;;;;;5062048;28;20065;-85
2022/06/28 02:45:40;;;;;;;14.25;12.52;;;24.30;69.50;;;;;;5075240;28;20028;-85
2022/06/28 02:48:06;;;;;;;13.10;11.82;;;24.30;69.20;;;;;;5076428;28;20359;-85
2022/06/28 02:50:32;;;;;;;13.15;11.80;;;24.40;68.50;;;;;;5077074;28;20486;-87
2022/06/28 02:53:09;;;;;;;16.38;12.82;;;24.40;68.80;;;;;;5080163;28;20027;-89
2022/06/28 02:55:35;;;;;;;13.63;12.20;;;24.50;68.50;;;;;;5083553;28;20024;-85
2022/06/28 02:58:01;;;;;;;15.75;12.63;;;24.50;68.40;;;;;;5078669;28;20339;-85
2022/06/28 03:00:26;;;;;;;15.25;13.85;;;24.50;68.20;;;;;;5077992;28;20025;-86
2022/06/28 03:02:52;;;;;;;17.08;13.50;;;24.50;67.90;;;;;;5084397;28;20020;-85
2022/06/28 03:05:20;;;;;;;15.05;13.05;;;24.60;68.10;;;;;;5095557;28;20031;-85
2022/06/28 03:07:46;;;;;;;13.18;11.88;;;24.60;68.10;;;;;;5085871;28;20025;-86
2022/06/28 03:10:13;;;;;;;13.27;11.88;;;24.60;67.40;;;;;;5091636;28;20013;-85
2022/06/28 03:12:39;;;;;;;14.45;12.95;;;24.70;67.60;;;;;;5095485;28;20024;-86
2022/06/28 03:15:06;;;;;;;13.88;12.45;;;24.80;67.90;;;;;;5074852;28;20104;-86
2022/06/28 03:17:32;;;;;;;16.37;11.47;;;24.90;67.10;;;;;;5090680;28;20028;-86
2022/06/28 03:19:58;;;;;;;14.63;11.57;;;24.90;67.10;;;;;;5076047;28;20041;-85
2022/06/28 03:22:24;;;;;;;12.73;11.52;;;24.90;67.00;;;;;;5075794;28;20013;-87
2022/06/28 03:24:50;;;;;;;11.90;10.68;;;24.90;67.60;;;;;;5058217;28;20040;-87
2022/06/28 03:27:16;;;;;;;16.25;12.23;;;24.90;66.60;;;;;;5061430;28;20028;-87
2022/06/28 03:29:43;;;;;;;12.52;11.45;;;24.90;66.70;;;;;;5077901;28;20562;-85
2022/06/28 03:32:09;;;;;;;13.32;11.95;;;24.80;67.10;;;;;;5087246;28;20036;-88
2022/06/28 03:34:35;;;;;;;14.02;11.63;;;24.80;67.60;;;;;;5091573;28;20037;-86
2022/06/28 03:37:01;;;;;;;13.15;11.50;;;24.90;67.50;;;;;;5088396;28;20027;-87
2022/06/28 03:39:29;;;;;;;17.25;14.45;;;24.80;67.00;;;;;;5077603;28;20536;-87
2022/06/28 03:41:55;;;;;;;16.38;13.18;;;24.80;67.70;;;;;;5072931;28;20025;-86
2022/06/28 03:44:21;;;;;;;14.55;11.40;;;24.90;67.60;;;;;;5075629;28;20045;-86
2022/06/28 03:46:47;;;;;;;12.45;11.27;;;25.00;67.20;;;;;;5077887;28;20036;-88
2022/06/28 03:49:13;;;;;;;14.52;11.57;;;25.10;67.30;;;;;;5058353;28;20020;-86
2022/06/28 03:51:38;;;;;;;16.13;11.25;;;25.10;67.20;;;;;;5077435;28;20035;-86
2022/06/28 03:54:05;;;;;;;11.77;10.63;;;25.10;66.60;;;;;;5077694;28;20362;-86
2022/06/28 03:56:31;;;;;;;;;;;25.00;66.40;;;;;;5076544;28;20023;-86
2022/06/28 03:58:57;;;;;;;12.30;10.82;;;25.00;66.40;;;;;;5070274;28;19904;-86
2022/06/28 04:01:23;;;;;;;13.13;11.68;;;24.90;66.70;;;;;;5075175;28;20016;-85
2022/06/28 04:03:48;;;;;;;13.85;10.25;;;25.00;66.60;;;;;;5075074;28;20049;-86
2022/06/28 04:06:14;;;;;;;14.20;10.85;;;25.00;66.30;;;;;;5074506;28;20111;-88
2022/06/28 04:08:40;;;;;;;15.10;11.05;;;25.00;65.70;;;;;;5075156;28;20032;-86
2022/06/28 04:11:15;;;;;;;12.30;10.35;;;25.00;66.20;;;;;;5075134;28;20028;-85
2022/06/28 04:13:46;;;;;;;14.38;12.15;;;25.00;66.00;;;;;;5068901;28;20437;-86
2022/06/28 04:16:12;;;;;;;12.35;11.13;;;25.20;65.70;;;;;;5051391;28;20019;-88
2022/06/28 04:18:38;;;;;;;15.45;11.50;;;25.10;65.20;;;;;;5077062;28;20029;-87
2022/06/28 04:21:04;;;;;;;11.48;10.35;;;25.10;66.10;;;;;;5084427;28;20027;-87
2022/06/28 04:23:29;;;;;;;12.77;11.10;;;25.10;65.40;;;;;;5075099;28;20025;-88
2022/06/28 04:25:55;;;;;;;10.73;9.73;;;25.10;65.60;;;;;;5072193;28;20098;-87
2022/06/28 04:28:21;;;;;;;22.02;13.85;;;25.10;65.60;;;;;;5062976;28;20040;-87
2022/06/28 04:30:47;;;;;;;18.33;13.13;;;25.10;66.10;;;;;;5078582;28;20031;-86
2022/06/28 04:33:13;;;;;;;12.85;11.00;;;25.00;66.40;;;;;;5074075;28;20020;-89
2022/06/28 04:35:39;;;;;;;15.32;12.20;;;25.00;66.70;;;;;;5074333;28;20017;-87
2022/06/28 04:38:05;;;;;;;14.27;11.50;;;24.80;67.30;;;;;;5074467;28;20089;-88
2022/06/28 04:40:30;;;;;;;15.77;12.55;;;24.70;67.60;;;;;;5075058;28;20088;-87
2022/06/28 04:42:56;;;;;;;17.08;12.98;;;24.80;68.10;;;;;;5078937;28;20016;-86
2022/06/28 04:45:22;;;;;;;18.27;12.10;;;24.70;68.30;;;;;;5060698;28;20052;-85
2022/06/28 04:47:48;;;;;;;17.38;13.77;;;24.60;68.70;;;;;;5074937;28;20485;-88
2022/06/28 04:50:14;;;;;;;17.30;12.35;;;24.60;68.30;;;;;;5074660;28;20099;-86
2022/06/28 04:52:40;;;;;;;14.90;13.05;;;24.70;68.40;;;;;;5073390;28;20020;-87
2022/06/28 04:55:06;;;;;;;17.05;12.00;;;24.70;68.20;;;;;;5073194;28;20064;-88
2022/06/28 04:57:32;;;;;;;18.13;13.18;;;24.90;67.90;;;;;;5072917;28;20108;-86
2022/06/28 04:59:58;;;;;;;12.73;11.57;;;25.20;67.30;;;;;;5074028;28;20079;-86
2022/06/28 05:02:24;;;;;;;13.55;12.25;;;25.40;66.70;;;;;;5078549;28;20027;-85
2022/06/28 05:04:49;;;;;;;13.93;12.60;;;25.70;66.10;;;;;;5078999;28;20438;-86
2022/06/28 05:07:16;;;;;;;16.48;13.30;;;26.00;65.40;;;;;;5073969;28;20375;-85
2022/06/28 05:09:42;;;;;;;13.90;12.50;;;26.30;65.50;;;;;;5073323;28;20096;-85
2022/06/28 05:12:08;;;;;;;13.88;12.32;;;26.20;64.00;;;;;;5085408;28;20089;-86
2022/06/28 05:14:34;;;;;;;14.80;12.98;;;26.40;64.20;;;;;;5058315;28;20024;-87
2022/06/28 05:17:01;;;;;;;16.02;11.70;;;26.60;63.20;;;;;;5074144;28;20048;-86
2022/06/28 05:19:28;;;;;;;16.30;10.27;;;27.10;61.60;;;;;;5058992;28;20021;-88
2022/06/28 05:21:54;;;;;;;15.52;11.52;;;27.80;59.30;;;;;;5077281;28;20017;-87
2022/06/28 05:24:20;;;;;;;16.73;11.20;;;28.10;58.20;;;;;;5074929;28;20020;-87
2022/06/28 05:26:46;;;;;;;12.30;11.00;;;27.70;57.50;;;;;;5056484;28;20097;-87
2022/06/28 05:29:12;;;;;;;13.05;11.35;;;27.20;59.10;;;;;;5075160;28;20021;-87
2022/06/28 05:31:38;;;;;;;13.68;9.98;;;27.50;59.00;;;;;;5074241;28;20031;-88
2022/06/28 05:34:04;;;;;;;12.40;10.38;;;27.80;58.00;;;;;;5056388;28;20385;-88
2022/06/28 05:36:29;;;;;;;17.05;10.00;;;27.80;58.20;;;;;;5076406;28;20427;-86
2022/06/28 05:38:56;;;;;;;13.07;10.25;;;;;;;;;;5077291;28;20039;-86
2022/06/28 05:41:22;;;;;;;18.77;10.00;;;29.50;54.80;;;;;;5078205;28;20055;-87
2022/06/28 05:43:48;;;;;;;13.10;9.45;;;30.30;52.80;;;;;;5067998;28;20025;-84
2022/06/28 05:46:14;;;;;;;12.63;9.30;;;30.40;52.70;;;;;;5093400;28;20041;-86
2022/06/28 05:48:40;;;;;;;13.48;10.45;;;30.40;52.20;;;;;;5082877;28;20029;-91
2022/06/28 05:51:06;;;;;;;17.08;14.07;;;30.90;51.60;;;;;;5076552;28;20013;-87
2022/06/28 05:53:33;;;;;;;12.82;9.82;;;30.70;51.40;;;;;;5093101;28;20021;-89
2022/06/28 05:55:59;;;;;;;14.65;11.98;;;30.40;52.10;;;;;;5083585;28;20029;-91
2022/06/28 05:58:24;;;;;;;15.05;9.18;;;29.80;53.20;;;;;;5075690;28;20028;-88
2022/06/28 06:00:50;;;;;;;12.18;8.93;;;29.60;53.60;;;;;;5046463;28;20035;-89
2022/06/28 06:03:16;;;;;;;13.32;8.40;;;29.60;53.80;;;;;;5075118;28;20043;-86
2022/06/28 06:05:42;;;;;;;9.60;7.78;;;30.20;51.50;;;;;;5077320;28;20052;-89
2022/06/28 06:08:08;;;;;;;11.38;7.85;;;29.70;51.00;;;;;;5055062;28;20074;-87
2022/06/28 06:10:34;;;;;;;16.00;7.18;;;29.80;51.30;;;;;;5057335;28;20100;-87
2022/06/28 06:13:01;;;;;;;11.63;7.00;;;30.70;49.70;;;;;;5077799;28;20049;-88
2022/06/28 06:15:27;;;;;;;8.50;6.72;;;31.80;47.20;;;;;;5075946;28;20028;-87
2022/06/28 06:17:53;;;;;;;11.87;7.43;;;32.30;46.30;;;;;;5065952;28;20359;-87
2022/06/28 06:20:19;;;;;;;16.27;9.27;;;32.90;45.30;;;;;;5074380;28;20531;-87
2022/06/28 06:22:47;;;;;;;21.27;9.33;;;33.80;44.00;;;;;;5077369;28;20394;-84
2022/06/28 06:25:13;;;;;;;12.55;8.68;;;34.10;43.70;;;;;;5076996;28;20111;-86
2022/06/28 06:27:39;;;;;;;12.48;7.07;;;33.90;41.90;;;;;;5077466;28;20394;-88
2022/06/28 06:30:06;;;;;;;12.27;8.40;;;33.80;42.20;;;;;;5077182;28;20055;-87
2022/06/28 06:32:33;;;;;;;9.18;7.20;;;33.80;42.40;;;;;;5069187;28;20032;-88
2022/06/28 06:34:59;;;;;;;12.02;5.95;;;34.00;42.90;;;;;;5060203;28;20417;-90
2022/06/28 06:37:26;;;;;;;7.23;5.80;;;34.70;41.90;;;;;;5079459;28;20021;-94
2022/06/28 06:39:53;;;;;;;9.00;4.93;;;35.50;39.80;;;;;;5079666;28;20626;-88
2022/06/28 06:42:21;;;;;;;10.00;5.00;;;35.10;38.60;;;;;;5081158;28;20017;-89
2022/06/28 06:44:47;;;;;;;7.88;5.60;;;35.00;38.30;;;;;;5066260;28;20036;-87
2022/06/28 06:47:13;;;;;;;9.10;5.35;;;35.00;38.50;;;;;;5071085;28;20551;-87
2022/06/28 06:49:39;;;;;;;6.27;4.97;;;35.30;38.50;;;;;;5094119;28;20029;-86
2022/06/28 06:52:05;;;;;;;10.17;5.33;;;35.50;38.50;;;;;;5070819;28;20024;-88
2022/06/28 06:54:31;;;;;;;8.82;5.78;;;36.50;37.70;;;;;;5079075;28;20285;-87
2022/06/28 06:56:57;;;;;;;7.30;5.22;;;37.80;36.50;;;;;;5059472;28;20448;-86
2022/06/28 06:59:22;;;;;;;7.97;5.03;;;38.60;35.40;;;;;;5059047;28;20047;-86
2022/06/28 07:01:48;;;;;;;6.55;4.60;;;39.00;34.80;;;;;;5058942;28;20077;-87
2022/06/28 07:04:17;;;;;;;11.27;4.90;;;39.50;34.30;;;;;;5075212;28;20079;-86
2022/06/28 07:06:43;;;;;;;6.63;5.07;;;39.50;33.50;;;;;;5054069;28;20062;-86
2022/06/28 07:09:09;;;;;;;7.22;4.97;;;39.10;34.20;;;;;;5078769;28;20095;-87
2022/06/28 07:11:35;;;;;;;12.10;5.97;;;40.30;32.80;;;;;;5063574;28;20037;-87
2022/06/28 07:14:02;;;;;;;6.63;4.68;;;40.00;32.40;;;;;;5089567;28;20450;-88
2022/06/28 07:16:28;;;;;;;10.18;4.88;;;38.90;32.60;;;;;;5063204;28;20037;-90
2022/06/28 07:18:54;;;;;;;7.32;4.85;;;38.50;33.70;;;;;;5079030;28;20027;-86
2022/06/28 07:21:19;;;;;;;9.65;5.65;;;39.60;32.70;;;;;;5060010;28;20498;-86
2022/06/28 07:23:45;;;;;;;9.85;5.57;;;40.70;32.80;;;;;;5078865;28;20036;-87
2022/06/28 07:26:16;;;;;;;10.93;5.65;;;41.80;32.20;;;;;;5057057;28;20431;-87
2022/06/28 07:28:42;;;;;;;6.47;5.22;;;40.40;31.50;;;;;;5076736;28;20504;-86
2022/06/28 07:31:07;;;;;;;11.30;4.07;;;39.20;32.50;;;;;;5077554;28;20016;-86
2022/06/28 07:33:33;;;;;;;8.57;4.35;;;38.80;32.40;;;;;;5078188;28;20031;-86
2022/06/28 07:35:59;;;;;;;11.02;4.18;;;38.80;32.50;;;;;;5080983;28;20029;-86
2022/06/28 07:38:29;;;;;;;8.75;4.07;;;39.20;32.40;;;;;;5078730;28;20108;-85
2022/06/28 07:41:00;;;;;;;8.38;4.00;;;39.40;31.80;;;;;;5063963;28;20139;-87
2022/06/28 07:43:26;;;;;;;8.05;3.83;;;39.00;31.80;;;;;;5085547;28;20040;-87
2022/06/28 07:45:52;;;;;;;;;;;39.00;31.80;;;;;;5080453;28;20029;-88
2022/06/28 07:48:19;;;;;;;4.82;3.42;;;38.80;32.10;;;;;;5079654;28;20002;-87
2022/06/28 07:53:34;;;;;;;8.43;3.30;;;39.40;31.40;;;;;;5080103;28;20039;-87
2022/06/28 07:56:00;;;;;;;5.40;4.00;;;39.40;31.50;;;;;;5078264;28;20032;-88
2022/06/28 07:58:26;;;;;;;6.85;3.97;;;39.70;31.40;;;;;;5060435;28;20055;-86
2022/06/28 08:00:52;;;;;;;7.05;2.95;;;39.10;31.30;;;;;;5080380;28;20465;-87
2022/06/28 08:03:18;;;;;;;7.82;6.25;;;38.80;32.00;;;;;;5081791;28;20037;-87
2022/06/28 08:05:44;;;;;;;7.88;3.67;;;39.00;31.60;;;;;;5066405;28;20040;-86
2022/06/28 08:08:10;;;;;;;7.93;3.45;;;40.00;31.20;;;;;;5084246;28;20116;-88
2022/06/28 08:10:36;;;;;;;8.27;4.00;;;41.30;30.20;;;;;;5086353;28;20028;-88
2022/06/28 08:13:02;;;;;;;;;;;41.90;29.80;;;;;;5068195;28;20025;-89
2022/06/28 08:15:28;;;;;;;6.88;2.80;;;42.50;30.00;;;;;;5080789;28;20308;-89
2022/06/28 08:17:54;;;;;;;9.15;3.78;;;42.50;29.00;;;;;;5065685;28;20035;-87
2022/06/28 08:20:20;;;;;;;;;;;43.20;28.60;;;;;;5088018;28;20029;-88
2022/06/28 08:22:47;;;;;;;10.88;4.88;;;43.50;28.80;;;;;;5080855;28;19904;-87
2022/06/28 08:25:13;;;;;;;11.38;3.55;;;42.30;28.30;;;;;;5083763;28;20036;-88
2022/06/28 08:27:40;;;;;;;;;;;41.90;28.90;;;;;;5067475;28;20012;-85
2022/06/28 08:30:07;;;;;;;4.75;3.25;;;42.40;29.10;;;;;;5060913;28;19913;-88
2022/06/28 08:32:33;;;;;;;7.30;2.90;;;42.60;28.10;;;;;;5076234;28;20413;-85
2022/06/28 08:34:59;;;;;;;5.05;2.45;;;42.80;27.90;;;;;;5062429;28;20023;-88
2022/06/28 08:37:25;;;;;;;;;;;43.10;27.70;;;;;;5082770;28;20024;-87
2022/06/28 08:39:51;;;;;;;4.43;2.50;;;42.50;28.30;;;;;;5084562;28;19904;-87
2022/06/28 08:42:24;;;;;;;;;;;42.60;27.50;;;;;;5092265;28;20032;-86
2022/06/28 08:44:50;;;;;;;7.20;2.53;;;42.10;28.00;;;;;;5089043;28;19951;-86
2022/06/28 08:47:20;;;;;;;3.22;1.90;;;42.50;27.70;;;;;;5088740;28;20059;-85
2022/06/28 08:50:00;;;;;;;6.32;2.38;;;42.60;27.00;;;;;;5080391;28;20374;-88
2022/06/28 08:52:26;;;;;;;3.33;2.17;;;42.40;27.40;;;;;;5050759;28;20027;-88
2022/06/28 08:54:53;;;;;;;8.60;2.42;;;42.50;27.60;;;;;;5080529;28;20025;-89
2022/06/28 08:57:20;;;;;;;4.97;2.70;;;42.40;27.50;;;;;;5048300;28;20024;-87
2022/06/28 08:59:48;;;;;;;5.72;2.30;;;42.80;27.50;;;;;;5065860;28;20044;-86
2022/06/28 09:02:15;;;;;;;8.23;3.53;;;41.80;27.90;;;;;;5066130;28;20024;-89
2022/06/28 09:04:53;;;;;;;9.45;4.70;;;41.80;27.80;;;;;;5064637;28;20044;-88
2022/06/28 09:07:21;;;;;;;8.52;2.38;;;41.90;27.70;;;;;;5082797;28;20032;-87
2022/06/28 09:09:47;;;;;;;4.03;1.92;;;41.70;27.50;;;;;;5067903;28;20035;-86
2022/06/28 09:12:13;;;;;;;6.90;2.58;;;42.20;27.50;;;;;;5074431;28;20036;-87
2022/06/28 09:14:41;;;;;;;4.75;2.17;;;42.40;27.20;;;;;;5093137;28;20080;-87
2022/06/28 09:17:25;;;;;;;6.03;2.45;;;41.10;27.60;;;;;;5093853;28;20104;-87
2022/06/28 09:19:54;;;;;;;6.05;2.88;;;40.10;28.30;;;;;;5087966;28;20039;-88
2022/06/28 09:22:34;;;;;;;11.23;4.78;;;39.80;28.90;;;;;;5069639;28;20017;-89
2022/06/28 09:25:02;;;;;;;4.68;3.10;;;40.10;28.10;;;;;;5059272;28;20028;-86
2022/06/28 09:27:36;;;;;;;4.68;1.70;;;38.90;28.30;;;;;;5080795;28;20031;-86
2022/06/28 09:30:05;;;;;;;6.10;2.05;;;38.60;27.80;;;;;;5046670;28;20171;-87
2022/06/28 09:32:33;;;;;;;17.98;3.40;;;39.40;27.60;;;;;;5083532;28;20025;-88
2022/06/28 09:35:11;;;;;;;5.15;2.00;;;40.80;27.10;;;;;;5084251;28;20040;-88
2022/06/28 09:37:48;;;;;;;10.50;3.50;;;41.70;26.40;;;;;;5085008;28;20545;-88
2022/06/28 09:40:25;;;;;;;7.32;1.65;;;42.00;26.70;;;;;;5073186;28;20028;-87
2022/06/28 09:43:13;;;;;;;6.93;2.13;;;42.00;26.40;;;;;;5081515;28;20020;-88
2022/06/28 09:45:46;;;;;;;4.38;1.27;;;42.00;26.60;;;;;;5059325;28;20037;-88
2022/06/28 09:48:16;;;;;;;6.90;2.20;;;41.90;26.30;;;;;;5058581;28;20124;-87
2022/06/28 09:50:42;;;;;;;7.75;2.13;;;41.40;26.50;;;;;;5081881;28;20031;-87
2022/06/28 09:53:09;;;;;;;;;;;41.30;26.70;;;;;;5066629;28;20024;-87
2022/06/28 09:55:34;;;;;;;4.97;1.75;;;41.50;26.90;;;;;;5063524;28;19905;-86
2022/06/28 09:58:01;;;;;;;;;;;41.10;26.70;;;;;;5083914;28;20029;-86
2022/06/28 10:00:27;;;;;;;5.35;1.95;;;40.70;27.10;;;;;;5065239;28;19916;-87
2022/06/28 10:02:58;;;;;;;4.68;1.60;;;;;;;;;;5082569;28;20027;-87
2022/06/28 10:05:25;;;;;;;7.63;2.20;;;40.60;56.00;;;;;;5063989;28;20394;-85
2022/06/28 10:07:51;;;;;;;5.38;1.90;;;39.50;27.60;;;;;;5082478;28;20020;-86
2022/06/28 10:10:17;;;;;;;7.32;2.20;;;39.60;27.60;;;;;;5082948;28;20107;-88
2022/06/28 10:15:37;;;;;;;8.55;1.92;;;40.70;27.40;;;;;;5084533;28;20032;-87
2022/06/28 10:18:16;;;;;;;2.58;1.45;;;41.00;26.30;;;;;;5083771;28;20023;-89
2022/06/28 10:20:46;;;;;;;8.70;2.10;;;41.00;26.20;;;;;;5085976;28;20039;-86
2022/06/28 10:23:25;;;;;;;8.15;1.92;;;40.60;26.10;;;;;;5082666;28;20377;-86
2022/06/28 10:26:06;;;;;;;6.80;2.20;;;39.50;26.60;;;;;;5065319;28;20094;-86
2022/06/28 10:29:03;;;;;;;6.78;1.98;;;39.20;26.90;;;;;;5065625;28;20043;-88
2022/06/28 10:31:30;;;;;;;5.85;1.42;;;39.30;26.20;;;;;;5082907;28;20037;-89
2022/06/28 10:33:58;;;;;;;7.53;2.13;;;38.30;25.20;;;;;;5066883;28;20028;-86
2022/06/28 10:36:26;;;;;;;5.45;1.42;;;36.80;27.10;;;;;;5061580;28;20063;-85
2022/06/28 10:39:01;;;;;;;3.55;1.55;;;34.70;27.90;;;;;;5080839;28;20040;-87
2022/06/28 10:41:53;;;;;;;8.45;2.15;;;33.20;29.10;;;;;;5078517;28;20033;-87
2022/06/28 10:44:44;;;;;;;6.75;2.08;;;31.90;30.60;;;;;;5078131;28;20107;-87
2022/06/28 10:47:12;;;;;;;7.38;2.75;;;30.60;31.80;;;;;;5080281;28;20052;-84
2022/06/28 10:49:46;;;;;;;4.35;1.65;;;29.90;32.90;;;;;;5079158;28;20020;-86
2022/06/28 10:52:18;;;;;;;10.35;2.40;;;29.40;33.40;;;;;;5079198;28;20043;-87
2022/06/28 10:54:56;;;;;;;5.05;2.20;;;28.90;34.10;;;;;;5078383;28;20327;-85
2022/06/28 10:57:31;;;;;;;3.42;2.55;;;28.60;34.60;;;;;;5064953;28;20458;-87
2022/06/28 11:00:03;;;;;;;4.35;2.33;;;28.20;36.10;;;;;;5058502;28;20028;-87
2022/06/28 11:02:46;;;;;;;4.88;2.95;;;27.80;36.70;;;;;;5077703;28;20115;-85
2022/06/28 11:05:13;;;;;;;5.30;3.15;;;27.70;36.90;;;;;;5075860;28;20040;-86
2022/06/28 11:07:40;;;;;;;6.53;2.13;;;27.60;36.60;;;;;;5077054;28;20028;-85
2022/06/28 11:10:12;;;;;;;5.93;2.53;;;27.40;36.20;;;;;;5077669;28;20029;-88
2022/06/28 11:12:40;;;;;;;6.63;2.80;;;27.20;37.00;;;;;;5045555;28;20021;-88
2022/06/28 11:15:08;;;;;;;4.15;1.95;;;27.20;36.90;;;;;;5075747;28;20028;-84
2022/06/28 11:17:37;;;;;;;5.00;1.98;;;27.10;36.70;;;;;;5075713;28;20055;-87
2022/06/28 11:20:13;;;;;;;6.88;2.65;;;27.10;36.70;;;;;;5078884;28;20070;-87
2022/06/28 11:22:50;;;;;;;5.68;2.08;;;27.10;37.00;;;;;;5078355;28;20028;-86
2022/06/28 11:25:16;;;;;;;5.82;2.65;;;27.10;36.40;;;;;;5079310;28;20149;-85
2022/06/28 11:27:52;;;;;;;7.15;1.98;;;27.00;36.50;;;;;;5087644;28;20450;-85
2022/06/28 11:30:19;;;;;;;5.28;1.60;;;27.00;37.10;;;;;;5088581;28;20032;-84
2022/06/28 11:32:50;;;;;;;;;;;27.00;36.00;;;;;;5086222;28;20016;-88
2022/06/28 11:35:25;;;;;;;4.32;1.77;;;26.90;35.40;;;;;;5061763;28;19912;-86
2022/06/28 11:37:55;;;;;;;3.10;1.50;;;26.80;35.40;;;;;;5095503;28;20041;-87
2022/06/28 11:40:22;;;;;;;6.03;1.75;;;26.70;35.30;;;;;;5080551;28;20087;-87
2022/06/28 11:43:08;;;;;;;5.47;2.28;;;26.70;34.90;;;;;;5077093;28;20017;-89
2022/06/28 11:45:36;;;;;;;3.20;2.20;;;26.60;34.70;;;;;;5094024;28;20035;-87
2022/06/28 11:48:09;;;;;;;3.85;1.73;;;26.70;35.60;;;;;;5082857;28;20041;-84
2022/06/28 11:50:55;;;;;;;4.13;1.77;;;26.50;35.00;;;;;;5067404;28;20066;-87
2022/06/28 11:53:22;;;;;;;6.23;1.83;;;26.40;35.10;;;;;;5078414;28;20025;-86
2022/06/28 11:55:48;;;;;;;;;;;26.30;34.90;;;;;;5078585;28;20028;-86
2022/06/28 11:58:38;;;;;;;5.50;1.90;;;26.20;35.50;;;;;;5077826;28;19905;-85
2022/06/28 12:01:15;;;;;;;5.13;1.50;;;26.30;35.40;;;;;;5062144;28;20028;-89
2022/06/28 12:03:43;;;;;;;4.43;1.90;;;26.30;36.30;;;;;;5073119;28;20093;-87
2022/06/28 12:06:27;;;;;;;5.50;2.17;;;26.30;36.30;;;;;;5079564;28;20174;-89
2022/06/28 12:08:55;;;;;;;6.32;2.30;;;26.40;36.90;;;;;;5060748;28;20012;-85
2022/06/28 12:11:27;;;;;;;6.05;1.38;;;26.40;36.90;;;;;;5060632;28;20110;-85
2022/06/28 12:14:14;;;;;;;6.00;1.77;;;26.40;36.70;;;;;;5059895;28;20025;-87
2022/06/28 12:16:41;;;;;;;;;;;26.40;36.90;;;;;;5079021;28;20474;-87
2022/06/28 12:19:11;;;;;;;4.68;2.00;;;26.30;36.60;;;;;;5077595;28;19904;-87
2022/06/28 12:21:38;;;;;;;3.97;1.75;;;26.20;37.70;;;;;;5060258;28;20032;-87
2022/06/28 12:24:04;;;;;;;5.90;1.60;;;26.20;37.30;;;;;;5078237;28;20020;-87
2022/06/28 12:26:41;;;;;;;5.80;2.03;;;26.20;37.60;;;;;;5078461;28;20043;-86
2022/06/28 12:29:07;;;;;;;4.03;1.47;;;26.10;37.50;;;;;;5077935;28;20519;-86
2022/06/28 12:31:33;;;;;;;5.65;2.20;;;26.10;37.50;;;;;;5077704;28;20265;-87
2022/06/28 12:34:05;;;;;;;4.18;1.85;;;26.00;36.90;;;;;;5077370;28;20020;-88
2022/06/28 12:36:31;;;;;;;5.88;1.80;;;26.00;37.30;;;;;;5078328;28;20016;-84
2022/06/28 12:38:57;;;;;;;6.72;2.10;;;26.00;37.20;;;;;;5062521;28;20029;-85
2022/06/28 12:41:23;;;;;;;8.20;2.13;;;25.90;36.70;;;;;;5078314;28;20501;-85
2022/06/28 12:43:48;;;;;;;6.30;2.13;;;25.90;37.10;;;;;;5064004;28;20025;-86
2022/06/28 12:46:14;;;;;;;6.25;2.05;;;25.90;37.50;;;;;;5061125;28;20059;-85
2022/06/28 12:48:40;;;;;;;6.32;2.65;;;25.90;37.50;;;;;;5062377;28;20435;-88
2022/06/28 12:51:07;;;;;;;6.03;1.90;;;25.90;37.80;;;;;;5079663;28;20075;-84
2022/06/28 12:53:33;;;;;;;4.32;1.52;;;25.90;37.80;;;;;;5067323;28;20031;-87
2022/06/28 12:55:59;;;;;;;6.40;1.92;;;25.80;37.70;;;;;;5067533;28;20032;-85
2022/06/28 12:58:25;;;;;;;7.32;2.05;;;25.70;38.00;;;;;;5084304;28;20491;-87
2022/06/28 13:00:51;;;;;;;10.30;1.90;;;25.80;37.70;;;;;;5083045;28;20039;-86